createdAt,value
2023-03-26T00:00:09.452Z,100025.38
2023-03-26T00:02:46.699Z,100026.09
2023-03-26T00:05:22.675Z,100028.97
2023-03-26T00:07:57.013Z,100023.72
2023-03-26T00:10:31.500Z,100030.72
2023-03-26T00:13:06.119Z,100029.06
2023-03-26T00:15:41.830Z,100031.00
2023-03-26T00:18:16.084Z,100027.94
2023-03-26T00:20:52.071Z,100024.69
2023-03-26T00:23:27.159Z,100028.97
2023-03-26T00:26:02.890Z,100015.44
2023-03-26T00:28:38.243Z,100018.50
2023-03-26T00:31:15.588Z,100016.66
2023-03-26T00:33:55.741Z,100014.81
2023-03-26T00:36:32.219Z,100020.88
2023-03-26T00:39:06.652Z,100012.91
2023-03-26T00:41:43.340Z,100015.91
2023-03-26T00:44:17.680Z,100025.44
2023-03-26T00:46:52.734Z,100031.13
2023-03-26T00:49:30.714Z,100027.34
2023-03-26T00:52:08.781Z,100025.25
2023-03-26T00:54:44.092Z,100032.84
2023-03-26T00:57:32.732Z,100030.94
2023-03-26T01:00:14.667Z,100035.12
2023-03-26T01:02:49.704Z,100026.47
2023-03-26T01:05:46.829Z,100030.47
2023-03-26T01:08:29.162Z,100023.87
2023-03-26T01:11:07.665Z,100027.56
2023-03-26T01:13:46.070Z,100022.41
2023-03-26T01:16:25.973Z,100019.09
2023-03-26T01:19:00.996Z,100017.94
2023-03-26T01:21:35.388Z,100025.81
2023-03-26T01:24:11.930Z,100012.44
2023-03-26T01:27:24.615Z,100020.22
2023-03-26T01:30:07.818Z,100014.66
2023-03-26T01:32:57.842Z,100018.97
2023-03-26T01:35:43.383Z,100018.69
2023-03-26T01:38:27.930Z,100020.47
2023-03-26T01:41:09.310Z,100014.81
2023-03-26T01:43:50.658Z,100010.28
2023-03-26T01:46:26.821Z,100013.97
2023-03-26T01:49:01.051Z,100019.59
2023-03-26T01:51:37.634Z,100018.69
2023-03-26T01:54:17.385Z,100023.50
2023-03-26T01:57:03.868Z,100026.72
2023-03-26T01:59:51.741Z,100024.19
2023-03-26T02:02:38.879Z,100024.31
2023-03-26T02:05:22.125Z,100013.09
2023-03-26T02:08:04.373Z,100024.31
2023-03-26T02:10:44.301Z,100016.72
2023-03-26T02:13:21.052Z,100022.47
2023-03-26T02:16:01.092Z,100025.97
2023-03-26T02:18:39.059Z,100025.84
2023-03-26T02:21:15.635Z,100014.44
2023-03-26T02:23:57.905Z,100008.84
2023-03-26T02:26:35.339Z,100014.00
2023-03-26T02:29:13.527Z,100011.19
2023-03-26T02:31:48.599Z,100011.97
2023-03-26T02:34:23.268Z,100003.75
2023-03-26T02:36:57.991Z,100000.63
2023-03-26T02:39:32.986Z,100011.56
2023-03-26T02:42:07.459Z,99999.97
2023-03-26T02:44:46.286Z,100002.28
2023-03-26T02:47:22.778Z,100000.50
2023-03-26T02:50:03.789Z,100005.22
2023-03-26T02:52:40.073Z,100000.72
2023-03-26T02:55:14.625Z,100001.59
2023-03-26T02:57:49.281Z,99996.25
2023-03-26T03:00:26.650Z,99995.03
2023-03-26T03:03:07.034Z,99983.00
2023-03-26T03:05:45.818Z,99988.69
2023-03-26T03:08:22.097Z,99988.03
2023-03-26T03:11:00.547Z,99982.50
2023-03-26T03:13:36.960Z,99992.53
2023-03-26T03:16:13.092Z,99990.31
2023-03-26T03:18:54.507Z,99983.00
2023-03-26T03:21:30.876Z,99990.06
2023-03-26T03:24:05.703Z,99991.47
2023-03-26T03:26:42.493Z,99991.66
2023-03-26T03:29:17.537Z,99995.47
2023-03-26T03:31:53.745Z,99992.38
2023-03-26T03:34:28.807Z,99998.16
2023-03-26T03:37:03.429Z,99993.25
2023-03-26T03:39:38.579Z,99989.56
2023-03-26T03:42:13.643Z,99994.50
2023-03-26T03:44:49.474Z,99999.38
2023-03-26T03:47:26.955Z,100000.59
2023-03-26T03:50:01.466Z,99998.78
2023-03-26T03:52:40.973Z,100003.63
2023-03-26T03:55:15.382Z,100010.69
2023-03-26T03:57:51.614Z,100013.41
2023-03-26T04:00:27.168Z,100022.91
2023-03-26T04:03:06.486Z,100013.53
2023-03-26T04:05:41.336Z,100005.28
2023-03-26T04:08:16.165Z,100001.91
2023-03-26T04:10:51.652Z,100006.53
2023-03-26T04:13:28.942Z,100002.22
2023-03-26T04:16:04.722Z,100004.06
2023-03-26T04:18:40.783Z,100000.69
2023-03-26T04:21:15.957Z,100000.37
2023-03-26T04:23:50.722Z,99998.31
2023-03-26T04:26:26.130Z,100001.81
2023-03-26T04:29:05.072Z,99996.84
2023-03-26T04:31:40.049Z,99998.31
2023-03-26T04:34:24.252Z,100001.44
2023-03-26T04:36:59.201Z,100009.78
2023-03-26T04:39:36.360Z,100010.16
2023-03-26T04:42:14.383Z,100011.69
2023-03-26T04:44:50.989Z,100013.41
2023-03-26T04:47:25.726Z,100009.22
2023-03-26T04:50:01.985Z,100007.63
2023-03-26T04:52:37.506Z,100015.03
2023-03-26T04:55:23.227Z,100009.25
2023-03-26T04:58:03.506Z,100009.69
2023-03-26T05:00:38.912Z,100006.84
2023-03-26T05:03:13.810Z,100013.75
2023-03-26T05:05:50.078Z,100020.63
2023-03-26T05:08:24.251Z,100024.06
2023-03-26T05:10:59.053Z,100018.56
2023-03-26T05:13:34.634Z,100012.00
2023-03-26T05:16:11.846Z,100001.44
2023-03-26T05:18:46.707Z,100003.81
2023-03-26T05:21:23.765Z,99996.16
2023-03-26T05:23:58.174Z,100003.22
2023-03-26T05:26:32.811Z,99998.19
2023-03-26T05:29:07.198Z,99995.53
2023-03-26T05:31:42.096Z,99998.84
2023-03-26T05:34:16.505Z,99998.56
2023-03-26T05:36:52.556Z,100005.16
2023-03-26T05:39:29.981Z,100004.62
2023-03-26T05:42:07.924Z,100014.81
2023-03-26T05:44:43.024Z,100012.00
2023-03-26T05:47:18.076Z,100024.03
2023-03-26T05:49:53.258Z,100023.59
2023-03-26T05:52:30.275Z,100019.59
2023-03-26T05:55:14.772Z,100015.19
2023-03-26T05:57:53.527Z,100017.63
2023-03-26T06:02:59.066Z,100018.12
2023-03-26T08:06:36.977Z,99987.47
2023-03-26T08:09:20.795Z,99991.94
2023-03-26T08:12:07.246Z,99988.09
2023-03-26T08:14:52.428Z,99982.28
2023-03-26T08:17:35.459Z,99984.19
2023-03-26T08:20:25.267Z,99981.97
2023-03-26T08:23:09.452Z,99985.69
2023-03-26T08:25:54.733Z,99979.59
2023-03-26T08:28:46.072Z,99974.03
2023-03-26T08:31:28.666Z,99974.59
2023-03-26T08:34:03.590Z,99969.03
2023-03-26T08:36:38.216Z,99964.53
2023-03-26T08:39:14.342Z,99959.88
2023-03-26T08:42:20.988Z,99945.75
2023-03-26T08:45:52.891Z,99952.28
2023-03-26T08:49:01.093Z,99948.88
2023-03-26T08:51:59.781Z,99944.25
2023-03-26T08:54:56.189Z,99924.81
2023-03-26T08:57:58.025Z,99932.41
2023-03-26T09:00:54.166Z,99934.13
2023-03-26T09:04:05.300Z,99927.63
2023-03-26T09:07:14.161Z,99923.72
2023-03-26T09:10:32.477Z,99923.31
2023-03-26T09:13:45.887Z,99920.28
2023-03-26T09:16:57.204Z,99929.38
2023-03-26T09:20:04.153Z,99924.13
2023-03-26T09:22:57.626Z,99920.13
2023-03-26T09:26:05.214Z,99913.88
2023-03-26T09:29:19.213Z,99904.91
2023-03-26T09:32:25.192Z,99895.16
2023-03-26T09:35:17.047Z,99896.88
2023-03-26T09:37:58.853Z,99891.53
2023-03-26T09:40:43.977Z,99888.78
2023-03-26T09:43:46.602Z,99888.25
2023-03-26T09:46:34.483Z,99880.72
2023-03-26T09:49:22.976Z,99873.22
2023-03-26T09:52:27.209Z,99871.25
2023-03-26T09:55:21.735Z,99862.72
2023-03-26T09:58:09.406Z,99861.72
2023-03-26T10:00:55.259Z,99851.13
2023-03-26T10:03:41.040Z,99853.16
2023-03-26T10:06:31.456Z,99852.41
2023-03-26T10:09:22.300Z,99841.78
2023-03-26T10:12:16.971Z,99836.22
2023-03-26T10:15:03.127Z,99830.19
2023-03-26T10:17:52.923Z,99819.06
2023-03-26T10:20:35.129Z,99816.28
2023-03-26T10:23:25.006Z,99804.91
2023-03-26T10:26:11.226Z,99804.69
2023-03-26T10:29:09.004Z,99800.38
2023-03-26T10:31:50.207Z,99793.84
2023-03-26T10:34:51.853Z,99794.78
2023-03-26T10:37:38.396Z,99789.16
2023-03-26T10:40:22.510Z,99784.09
2023-03-26T10:43:36.343Z,99774.03
2023-03-26T10:46:31.113Z,99770.25
2023-03-26T10:49:49.217Z,99770.13
2023-03-26T10:52:28.439Z,99764.50
2023-03-26T10:55:12.843Z,99757.09
2023-03-26T10:57:53.701Z,99751.16
2023-03-26T11:00:31.255Z,99741.56
2023-03-26T11:03:22.117Z,99745.69
2023-03-26T11:06:02.733Z,99750.72
2023-03-26T11:08:48.114Z,99737.47
2023-03-26T11:11:29.384Z,99732.44
2023-03-26T11:14:10.852Z,99730.78
2023-03-26T11:16:56.326Z,99713.97
2023-03-26T11:19:39.470Z,99710.69
2023-03-26T11:22:24.762Z,99698.41
2023-03-26T11:25:18.938Z,99694.22
2023-03-26T11:28:07.268Z,99688.19
2023-03-26T11:30:48.204Z,99681.06
2023-03-26T11:33:25.794Z,99682.63
2023-03-26T11:36:11.324Z,99672.00
2023-03-26T11:38:48.860Z,99672.38
2023-03-26T11:41:27.227Z,99662.00
2023-03-26T11:44:10.050Z,99672.69
2023-03-26T11:46:47.051Z,99658.31
2023-03-26T11:49:24.106Z,99648.34
2023-03-26T11:51:59.274Z,99641.53
2023-03-26T11:54:34.380Z,99647.28
2023-03-26T11:57:17.232Z,99638.69
2023-03-26T11:59:57.890Z,99623.78
2023-03-26T12:02:39.164Z,99613.37
2023-03-26T12:05:20.639Z,99608.50
2023-03-26T12:07:57.412Z,99606.16
2023-03-26T12:10:38.046Z,99592.00
2023-03-26T12:13:29.660Z,99593.47
2023-03-26T12:16:10.943Z,99594.44
2023-03-26T12:18:46.966Z,99591.16
2023-03-26T12:21:21.843Z,99577.13
2023-03-26T12:23:59.999Z,99571.66
2023-03-26T12:26:39.775Z,99567.59
2023-03-26T12:29:17.320Z,99567.13
2023-03-26T12:31:58.143Z,99560.72
2023-03-26T12:34:35.500Z,99554.41
2023-03-26T12:37:35.203Z,99541.19
2023-03-26T12:40:27.519Z,99537.66
2023-03-26T12:44:52.618Z,99528.41
2023-03-26T12:47:54.335Z,99530.69
2023-03-26T12:48:56.950Z,99524.91
2023-03-26T12:51:44.173Z,99519.50
2023-03-26T12:54:35.907Z,99506.25
2023-03-26T12:57:21.485Z,99507.41
2023-03-26T13:00:12.353Z,99503.66
2023-03-26T13:03:12.659Z,99499.34
2023-03-26T13:06:01.181Z,99498.28
2023-03-26T13:08:52.349Z,99485.25
2023-03-26T13:11:38.103Z,99469.66
2023-03-26T13:14:50.775Z,99471.72
2023-03-26T13:17:32.468Z,99473.44
2023-03-26T13:20:15.869Z,99462.41
2023-03-26T13:22:59.732Z,99464.44
2023-03-26T13:25:44.667Z,99465.56
2023-03-26T13:28:33.091Z,99461.25
2023-03-26T13:31:13.930Z,99450.63
2023-03-26T13:34:00.225Z,99448.09
2023-03-26T13:36:46.757Z,99434.25
2023-03-26T13:39:33.607Z,99430.63
2023-03-26T13:42:23.452Z,99429.66
2023-03-26T13:45:08.277Z,99428.03
2023-03-26T13:47:48.102Z,99413.69
2023-03-26T13:50:28.108Z,99423.53
2023-03-26T13:53:08.012Z,99425.09
2023-03-26T13:55:47.501Z,99415.19
2023-03-26T13:58:34.328Z,99413.63
2023-03-26T14:03:17.623Z,99399.91
2023-03-26T14:05:56.758Z,99399.91
2023-03-26T14:08:37.593Z,99397.38
2023-03-26T14:11:18.226Z,99389.88
2023-03-26T14:13:59.339Z,99389.91
2023-03-26T14:16:40.411Z,99396.56
2023-03-26T14:19:48.951Z,99395.06
2023-03-26T14:22:33.677Z,99388.75
2023-03-26T14:25:31.544Z,99373.84
2023-03-26T14:28:25.515Z,99371.44
2023-03-26T14:31:20.761Z,99363.34
2023-03-26T14:34:07.282Z,99367.31
2023-03-26T14:37:14.567Z,99355.66
2023-03-26T14:40:12.990Z,99358.00
2023-03-26T14:42:56.483Z,99351.88
2023-03-26T14:45:53.861Z,99337.31
2023-03-26T14:49:03.496Z,99340.94
2023-03-26T14:51:58.715Z,99335.03
2023-03-26T14:54:38.375Z,99341.91
2023-03-26T14:57:52.469Z,99329.22
2023-03-26T15:01:04.585Z,99330.72
2023-03-26T15:04:21.154Z,99326.91
2023-03-26T15:07:22.624Z,99311.59
2023-03-26T15:10:17.228Z,99314.19
2023-03-26T15:13:36.903Z,99302.19
2023-03-26T15:16:43.733Z,99306.25
2023-03-26T15:19:47.711Z,99289.66
2023-03-26T15:23:17.052Z,99286.75
2023-03-26T15:26:30.704Z,99276.28
2023-03-26T15:29:30.841Z,99267.59
2023-03-26T15:32:40.594Z,99272.72
2023-03-26T15:35:36.925Z,99265.88
2023-03-26T15:38:45.045Z,99267.28
2023-03-26T15:41:29.759Z,99270.91
2023-03-26T15:44:32.973Z,99265.56
2023-03-26T15:47:50.949Z,99269.63
2023-03-26T15:50:33.330Z,99264.28
2023-03-26T15:53:19.647Z,99263.06
2023-03-26T15:56:11.309Z,99262.19
2023-03-26T15:58:55.304Z,99249.06
2023-03-26T16:01:46.364Z,99249.75
2023-03-26T16:04:41.598Z,99244.53
2023-03-26T16:07:39.209Z,99238.56
2023-03-26T16:10:28.271Z,99228.41
2023-03-26T16:13:37.848Z,99236.72
2023-03-26T16:16:23.315Z,99223.22
2023-03-26T16:19:00.618Z,99220.00
2023-03-26T16:21:53.945Z,99221.09
2023-03-26T16:24:32.057Z,99213.59
2023-03-26T16:27:30.399Z,99206.03
2023-03-26T16:30:29.130Z,99209.59
2023-03-26T16:33:15.868Z,99201.63
2023-03-26T16:36:18.516Z,99198.97
2023-03-26T16:39:18.266Z,99195.44
2023-03-26T16:42:10.201Z,99193.28
2023-03-26T16:44:51.981Z,99191.59
2023-03-26T16:47:37.486Z,99182.47
2023-03-26T16:50:26.194Z,99177.50
2023-03-26T16:53:17.213Z,99183.22
2023-03-26T16:55:58.889Z,99176.72
2023-03-26T16:58:40.133Z,99174.31
2023-03-26T17:01:27.290Z,99178.91
2023-03-26T17:04:05.844Z,99180.03
2023-03-26T17:07:13.828Z,99169.94
2023-03-26T17:10:01.225Z,99159.94
2023-03-26T17:12:41.762Z,99176.25
2023-03-26T17:15:28.060Z,99166.28
2023-03-26T17:18:23.886Z,99166.16
2023-03-26T17:21:03.704Z,99166.53
2023-03-26T17:24:03.998Z,99162.63
2023-03-26T17:26:46.875Z,99153.59
2023-03-26T17:29:29.957Z,99165.81
2023-03-26T17:32:12.429Z,99160.97
2023-03-26T17:35:02.297Z,99161.38
2023-03-26T17:37:44.627Z,99152.31
2023-03-26T17:40:54.609Z,99152.28
2023-03-26T17:43:40.459Z,99167.97
2023-03-26T17:46:35.568Z,99163.44
2023-03-26T17:49:19.326Z,99166.16
2023-03-26T17:51:58.402Z,99169.97
2023-03-26T17:54:35.976Z,99170.22
2023-03-26T17:57:17.377Z,99166.97
2023-03-26T17:59:59.041Z,99165.38
2023-03-26T18:02:39.533Z,99180.25
2023-03-26T18:05:16.204Z,99168.78
2023-03-26T18:08:20.833Z,99174.81
2023-03-26T18:11:41.335Z,99175.81
2023-03-26T18:14:48.612Z,99170.50
2023-03-26T18:17:24.873Z,99173.84
2023-03-26T18:20:07.442Z,99161.56
2023-03-26T18:22:46.331Z,99156.53
2023-03-26T18:25:25.270Z,99151.28
2023-03-26T18:28:02.140Z,99151.50
2023-03-26T18:30:48.467Z,99142.16
2023-03-26T18:33:27.122Z,99155.22
2023-03-26T18:36:01.399Z,99154.25
2023-03-26T18:38:38.567Z,99147.75
2023-03-26T18:41:24.964Z,99141.47
2023-03-26T18:44:04.030Z,99147.28
2023-03-26T18:46:40.234Z,99149.75
2023-03-26T18:49:17.305Z,99145.97
2023-03-26T18:51:57.606Z,99143.25
2023-03-26T18:54:36.651Z,99143.72
2023-03-26T18:57:15.236Z,99138.97
2023-03-26T18:59:54.194Z,99149.47
2023-03-26T19:02:31.136Z,99146.47
2023-03-26T19:05:09.245Z,99147.69
2023-03-26T19:07:45.957Z,99145.44
2023-03-26T19:10:22.321Z,99141.72
2023-03-26T19:12:58.578Z,99138.47
2023-03-26T19:15:35.557Z,99135.03
2023-03-26T19:18:18.764Z,99130.78
2023-03-26T19:20:56.877Z,99129.03
2023-03-26T19:23:34.284Z,99123.81
2023-03-26T19:26:12.631Z,99113.50
2023-03-26T19:28:51.561Z,99097.94
2023-03-26T19:31:30.367Z,99094.34
2023-03-26T19:34:27.480Z,99088.41
2023-03-26T19:37:04.414Z,99086.28
2023-03-26T19:39:42.902Z,99082.75
2023-03-26T19:42:21.515Z,99079.63
2023-03-26T19:44:57.745Z,99086.28
2023-03-26T19:47:50.090Z,99080.47
2023-03-26T19:50:34.209Z,99072.38
2023-03-26T19:53:22.571Z,99071.53
2023-03-26T19:55:59.037Z,99080.22
2023-03-26T19:58:35.425Z,99076.78
2023-03-26T20:01:17.776Z,99064.72
2023-03-26T20:03:58.037Z,99066.03
2023-03-26T20:09:29.985Z,99057.56
2023-03-26T20:12:04.804Z,99059.56
2023-03-26T20:14:39.673Z,99053.78
2023-03-26T20:17:16.600Z,99050.09
2023-03-26T20:19:52.539Z,99043.63
2023-03-26T20:22:29.461Z,99063.44
2023-03-26T20:27:58.469Z,99052.19
2023-03-26T20:30:37.904Z,99052.47
2023-03-26T20:33:19.277Z,99041.19
2023-03-26T20:35:54.155Z,99041.16
2023-03-26T20:38:39.209Z,99028.34
2023-03-26T20:41:16.857Z,99026.81
2023-03-26T20:43:52.255Z,99028.31
2023-03-26T20:46:30.948Z,99027.56
2023-03-26T20:49:10.606Z,99018.94
2023-03-26T20:51:46.904Z,99024.72
2023-03-26T20:54:25.282Z,99024.47
2023-03-26T20:56:59.936Z,99034.47
2023-03-26T20:59:34.669Z,99039.25
2023-03-26T21:02:12.069Z,99026.69
2023-03-26T21:04:47.440Z,99033.03
2023-03-26T21:07:21.938Z,99044.28
2023-03-26T21:10:00.918Z,99038.75
2023-03-26T21:12:44.218Z,99033.72
2023-03-26T21:15:23.583Z,99033.72
2023-03-26T21:17:59.293Z,99023.69
2023-03-26T21:20:37.252Z,99031.41
2023-03-26T21:23:17.923Z,99035.41
2023-03-26T21:26:02.902Z,99040.34
2023-03-26T21:28:42.656Z,99039.91
2023-03-26T21:31:19.510Z,99043.47
2023-03-26T21:33:55.361Z,99048.09
2023-03-26T21:36:30.164Z,99053.31
2023-03-26T21:39:06.547Z,99055.50
2023-03-26T21:41:46.300Z,99059.12
2023-03-26T21:44:21.716Z,99047.91
2023-03-26T21:46:56.504Z,99045.97
2023-03-26T21:49:31.882Z,99031.44
2023-03-26T21:52:06.933Z,99035.63
2023-03-26T21:54:43.190Z,99021.44
2023-03-26T21:57:33.289Z,99017.47
2023-03-26T22:03:11.547Z,99019.03
2023-03-26T22:05:54.698Z,99019.03
2023-03-26T22:08:32.347Z,99023.06
2023-03-26T22:11:07.986Z,99033.53
2023-03-26T22:13:42.407Z,99044.97
2023-03-26T22:16:17.515Z,99040.69
2023-03-26T22:18:53.936Z,99030.94
2023-03-26T22:21:28.761Z,99028.41
2023-03-26T22:24:06.396Z,99028.59
2023-03-26T22:26:41.069Z,99025.94
2023-03-26T22:29:15.594Z,99029.25
2023-03-26T22:31:50.327Z,99015.69
2023-03-26T22:34:26.004Z,99010.00
2023-03-26T22:37:00.481Z,99008.78
2023-03-26T22:39:35.008Z,99012.47
2023-03-26T22:42:10.045Z,99015.75
2023-03-26T22:44:44.313Z,99008.25
2023-03-26T22:47:18.882Z,98990.66
2023-03-26T22:49:55.639Z,98986.81
2023-03-26T22:52:30.708Z,98984.44
2023-03-26T22:55:05.871Z,98969.44
2023-03-26T22:57:41.430Z,98964.91
2023-03-26T23:00:19.609Z,98962.22
2023-03-26T23:02:56.042Z,98958.44
2023-03-26T23:05:31.660Z,98952.84
2023-03-26T23:08:07.747Z,98944.84
2023-03-26T23:10:44.101Z,98950.66
2023-03-26T23:13:18.991Z,98943.16
2023-03-26T23:15:58.054Z,98939.31
2023-03-26T23:18:32.688Z,98942.41
2023-03-26T23:21:14.929Z,98939.34
2023-03-26T23:23:50.452Z,98947.91
2023-03-26T23:26:25.217Z,98940.41
2023-03-26T23:28:59.823Z,98939.91
2023-03-26T23:31:34.223Z,98935.47
2023-03-26T23:34:08.843Z,98931.53
2023-03-26T23:36:44.888Z,98922.09
2023-03-26T23:39:20.130Z,98917.53
2023-03-26T23:41:54.609Z,98912.56
2023-03-26T23:44:29.679Z,98907.81
2023-03-26T23:47:10.331Z,98901.28
2023-03-26T23:49:45.331Z,98889.81
2023-03-26T23:52:21.114Z,98886.84
2023-03-26T23:54:55.792Z,98878.56
2023-03-26T23:57:30.653Z,98873.06
